Terminal Aerodrome Forecast
Issued by NWS

Home | Current Version | Previous Version | Text Only | Print | Product List | Glossary Off
Versions: 1 2 3 4 5 6 7 8 9 10 11 12 13 14 15 16 17

267
FTUS43 KMPX 201741
TAFAXN
TAF
KAXN 201741Z 2018/2118 07013KT 4SM RA BR SCT019 OVC050
     FM202100 06013G19KT 3SM -RA BR OVC010
     FM210700 01008KT 2SM -RA BR OVC005
     FM211200 33011KT 4SM -DZ BR OVC007
     FM211500 32014KT P6SM VCSH OVC015=

USA.gov is the U.S. government's official web portal to all federal, state and local government web resources and services.